Latest Weather Observations for Coffs Harbour Airport

IDN60801

Issued at 4:42 pm EDT Wednesday 19 December 2018 (issued every 10 minutes, with the page automatically refreshed every 10 minutes)

About weather observations | Map of weather stations | Latest weather observations for NSW | Other Formats
Station Details ID: 059151 Name: COFFS HARBOUR AIRPORT Lat: -30.32 Lon: 153.12 Height: 3.5 m
Data from the previous 72 hours. | See also: Recent months at Coffs Harbour Airport
Date/Time
EDT
Temp
°C
App
Temp
°C
Dew
Point
°C
Rel
Hum
%
Delta-T
°C
Wind Press
QNH
hPa
Press
MSL
hPa
Rain since
9am
mm
Dir  Spd
km/h
Gust
km/h
Spd
kts
Gust
kts
19/04:30pm 26.2 24.3 21.4 75 3.2 NNE 33 43 18 23 1010.8 1010.8 0.0
19/04:00pm 26.7 24.6 21.7 74 3.3 NNE 35 50 19 27 1010.8 1010.8 0.0
19/03:38pm 26.6 25.1 21.8 75 3.2 NNE 32 50 17 27 1011.0 1011.0 0.0
19/03:30pm 26.3 24.6 21.7 76 3.1 NE 33 46 18 25 1011.1 1011.1 0.0
19/03:00pm 26.1 23.5 21.5 76 3.1 NE 37 48 20 26 1011.3 1011.3 0.0
19/02:30pm 26.4 24.6 21.6 75 3.2 NE 33 46 18 25 1011.8 1011.8 0.0
19/02:00pm 26.3 24.5 22.2 78 2.8 NE 35 48 19 26 1012.1 1012.1 0.0
19/01:30pm 26.2 24.1 21.6 76 3.1 NE 35 44 19 24 1012.5 1012.5 0.0
19/01:00pm 26.1 24.2 21.3 75 3.2 NE 33 41 18 22 1012.9 1012.9 0.0
19/12:30pm 26.2 24.2 21.2 74 3.3 NE 33 44 18 24 1013.3 1013.3 0.0
19/12:00pm 26.3 24.7 21.5 75 3.2 NE 32 41 17 22 1013.4 1013.4 0.0
19/11:30am 25.9 24.0 20.9 74 3.3 NE 32 39 17 21 1013.7 1013.7 0.0
19/11:00am 26.3 25.1 20.8 71 3.6 NE 28 37 15 20 1013.8 1013.8 0.0
19/10:30am 26.2 26.1 21.4 75 3.2 NE 24 32 13 17 1013.9 1013.9 0.0
19/10:00am 26.0 25.5 20.8 73 3.4 NE 24 30 13 16 1014.0 1014.0 0.0
19/09:30am 26.6 28.0 20.4 69 4.1 NNW 13 20 7 11 1014.0 1014.0 0.0
19/09:00am 25.9 27.4 20.5 72 3.5 NW 13 19 7 10 1013.8 1013.8 0.0
19/08:30am 25.8 26.9 19.7 69 3.9 N 13 17 7 9 1013.6 1013.6 -
19/08:00am 25.4 26.6 19.8 71 3.6 NNW 13 17 7 9 1013.5 1013.5 -
19/07:30am 24.7 26.1 19.5 73 3.3 N 11 17 6 9 1013.4 1013.4 -
19/07:00am 24.1 26.1 20.0 78 2.6 N 9 13 5 7 1013.4 1013.4 -
19/06:30am 23.0 25.1 20.1 84 1.9 N 9 11 5 6 1013.1 1013.1 -
19/06:00am 22.2 24.0 19.6 85 1.7 N 9 13 5 7 1013.0 1013.0 -
19/05:30am 22.5 23.9 19.5 83 1.9 NNE 11 13 6 7 1012.7 1012.7 -
19/05:00am 23.1 23.5 19.9 82 2.1 NNE 17 20 9 11 1012.5 1012.5 -
19/02:00am 23.2 24.7 19.8 81 2.2 N 11 15 6 8 1012.9 1012.9 0.0
19/01:30am 23.4 24.6 19.8 80 2.3 N 13 17 7 9 1013.1 1013.1 0.0
19/01:00am 22.9 24.9 19.9 83 1.9 N 9 15 5 8 1013.6 1013.6 0.0
19/12:30am 23.3 24.6 20.1 82 2.1 N 13 19 7 10 1013.8 1013.8 0.0
19/12:00am 22.8 24.0 20.0 84 1.8 N 13 17 7 9 1014.0 1014.0 0.0
 
Date/Time
EDT
Temp
°C
App
Temp
°C
Dew
Point
°C
Rel
Hum
%
Delta-T
°C
Wind Press
QNH
hPa
Press
MSL
hPa
Rain since
9am
mm
Dir  Spd
km/h
Gust
km/h
Spd
kts
Gust
kts
18/11:30pm 23.4 25.1 20.2 82 2.1 N 11 13 6 7 1014.2 1014.2 0.0
18/11:00pm 23.4 25.1 20.2 82 2.1 N 11 13 6 7 1014.5 1014.5 0.0
18/10:30pm 23.7 24.7 20.2 81 2.3 N 15 19 8 10 1014.3 1014.3 0.0
18/10:00pm 23.9 24.6 20.4 81 2.3 N 17 19 9 10 1014.1 1014.1 0.0
18/09:30pm 23.9 24.6 20.4 81 2.3 N 17 26 9 14 1013.9 1013.9 0.0
18/09:00pm 23.9 24.8 20.8 83 2.0 NNE 17 22 9 12 1013.6 1013.6 0.0
18/08:30pm 23.7 24.1 20.6 83 2.0 NNE 19 26 10 14 1013.3 1013.3 0.0
18/08:00pm 23.7 24.5 20.6 83 2.0 NNE 17 26 9 14 1013.0 1013.0 0.0
18/07:30pm 23.8 23.3 20.7 83 2.0 NNE 24 32 13 17 1012.7 1012.7 0.0
18/07:00pm 24.2 23.3 20.7 81 2.3 NNE 26 35 14 19 1012.2 1012.2 0.0
18/06:30pm 24.1 22.9 20.8 82 2.2 NNE 28 41 15 22 1011.6 1011.6 0.0
18/06:00pm 24.3 23.1 20.8 81 2.3 NNE 28 43 15 23 1011.6 1011.6 0.0
18/05:30pm 24.5 22.1 20.4 78 2.7 NNE 33 44 18 24 1011.2 1011.2 0.0
18/05:00pm 25.7 24.1 21.6 78 2.7 NNE 32 46 17 25 1011.1 1011.1 0.0
18/04:30pm 25.2 23.3 21.3 79 2.6 NE 33 46 18 25 1010.9 1010.9 0.0
18/04:00pm 25.9 23.6 21.3 76 3.0 NNE 35 50 19 27 1011.0 1011.0 0.0
18/03:30pm 26.0 23.0 20.6 72 3.5 NNE 37 50 20 27 1011.1 1011.1 0.0
18/03:00pm 26.5 24.3 21.5 74 3.3 NE 35 50 19 27 1011.3 1011.3 0.0
18/02:30pm 25.9 23.5 21.1 75 3.2 NE 35 46 19 25 1011.6 1011.6 0.0
18/02:00pm 25.8 23.7 21.0 75 3.2 NE 33 44 18 24 1011.7 1011.7 0.0
18/01:30pm 25.4 22.6 21.1 77 2.8 NE 37 48 20 26 1012.0 1012.0 0.0
18/01:00pm 25.7 23.5 20.7 74 3.3 NE 33 43 18 23 1012.2 1012.2 0.0
18/12:30pm 26.1 24.2 21.3 75 3.2 NE 33 41 18 22 1012.5 1012.5 0.0
18/12:00pm 25.7 23.5 20.7 74 3.3 NE 33 44 18 24 1012.7 1012.7 0.0
18/11:30am 25.3 23.0 20.1 73 3.4 NE 32 43 17 23 1013.1 1013.1 0.0
18/11:00am 25.3 22.9 19.9 72 3.5 NNE 32 41 17 22 1013.3 1013.3 0.0
18/10:30am 25.6 24.7 21.5 78 2.7 NE 28 35 15 19 1013.3 1013.3 0.0
18/10:00am 24.4 23.0 20.5 79 2.5 NNE 28 33 15 18 1013.4 1013.4 0.0
18/09:30am 23.6 23.0 20.5 83 2.0 NE 24 33 13 18 1013.5 1013.5 0.0
18/09:00am 25.0 24.8 19.4 71 3.6 NNW 19 28 10 15 1013.5 1013.5 0.0
18/08:30am 24.8 24.1 19.6 73 3.3 NNW 22 32 12 17 1013.4 1013.4 0.0
18/08:00am 24.2 24.2 19.7 76 2.9 N 19 24 10 13 1013.2 1013.2 0.0
18/07:30am 24.1 24.0 20.0 78 2.6 NNW 20 32 11 17 1013.0 1013.0 0.0
18/07:00am 23.9 24.2 19.6 77 2.8 N 17 22 9 12 1012.6 1012.6 0.0
18/06:30am 23.0 24.0 19.4 80 2.3 NNE 13 17 7 9 1012.3 1012.3 0.0
18/06:00am 22.8 22.1 19.4 81 2.2 N 22 30 12 16 1011.9 1011.9 0.0
18/05:30am 22.4 22.6 19.4 83 1.9 N 17 26 9 14 1011.7 1011.7 0.0
18/05:00am 22.2 22.7 19.2 83 1.9 N 15 20 8 11 1011.4 1011.4 0.0
18/04:30am 22.1 22.3 19.3 84 1.8 N 17 28 9 15 1011.3 1011.3 0.0
18/04:00am 21.3 22.3 18.7 85 1.6 NNE 11 15 6 8 1011.3 1011.3 0.0
18/03:30am 22.1 22.9 19.1 83 1.9 NNW 13 19 7 10 1011.1 1011.1 0.0
18/03:00am 22.4 22.1 19.2 82 2.0 N 19 28 10 15 1011.2 1011.2 0.0
18/02:30am 22.3 22.5 19.3 83 1.9 N 17 22 9 12 1011.1 1011.1 0.0
18/02:00am 22.3 22.4 19.1 82 2.0 N 17 26 9 14 1011.4 1011.4 0.0
18/01:30am 22.6 22.8 19.4 82 2.0 N 17 20 9 11 1011.7 1011.7 0.0
18/01:00am 22.6 22.8 19.4 82 2.0 N 17 30 9 16 1011.8 1011.8 0.0
18/12:30am 22.5 23.6 19.7 84 1.8 NNW 13 19 7 10 1012.2 1012.2 0.0
18/12:00am 22.6 23.9 19.4 82 2.0 NNW 11 17 6 9 1012.5 1012.5 0.0
 
Date/Time
EDT
Temp
°C
App
Temp
°C
Dew
Point
°C
Rel
Hum
%
Delta-T
°C
Wind Press
QNH
hPa
Press
MSL
hPa
Rain since
9am
mm
Dir  Spd
km/h
Gust
km/h
Spd
kts
Gust
kts
17/11:30pm 22.8 23.7 19.2 80 2.3 NNW 13 19 7 10 1012.4 1012.4 0.0
17/11:00pm 22.9 22.7 19.3 80 2.3 N 19 26 10 14 1012.7 1012.7 0.0
17/10:30pm 23.1 22.8 19.5 80 2.3 N 20 30 11 16 1012.9 1012.9 0.0
17/10:00pm 22.8 22.7 19.6 82 2.0 NNE 19 28 10 15 1013.0 1013.0 0.0
17/09:30pm 22.9 22.5 19.3 80 2.3 N 20 28 11 15 1012.9 1012.9 0.0
17/09:00pm 22.6 22.0 19.8 84 1.8 N 22 30 12 16 1012.8 1012.8 0.0
17/08:30pm 22.8 21.6 20.1 85 1.7 NNE 26 33 14 18 1012.4 1012.4 0.0
17/08:00pm 22.8 21.6 20.0 84 1.8 NNE 26 35 14 19 1012.2 1012.2 0.0
17/07:30pm 22.9 21.4 20.2 85 1.7 NNE 28 33 15 18 1011.7 1011.7 0.0
17/07:00pm 23.2 21.0 20.3 84 1.9 NNE 32 41 17 22 1011.1 1011.1 0.0
17/06:30pm 23.6 21.8 20.3 82 2.1 NNE 30 41 16 22 1010.9 1010.9 0.0
17/06:00pm 24.0 21.6 20.3 80 2.4 NNE 33 41 18 22 1010.5 1010.5 0.0
17/05:30pm 24.7 22.2 19.8 74 3.2 NNE 32 44 17 24 1010.3 1010.3 0.0
17/05:00pm 24.8 22.9 20.1 75 3.1 NNE 30 39 16 21 1010.2 1010.2 0.0
17/04:30pm 24.5 22.1 20.0 76 2.9 NNE 32 43 17 23 1010.1 1010.1 0.0
17/04:00pm 23.9 21.1 20.2 80 2.4 NNE 35 44 19 24 1010.3 1010.3 0.0
17/03:30pm 24.3 21.7 20.6 80 2.4 NNE 35 48 19 26 1010.5 1010.5 0.0
17/03:00pm 24.6 22.1 20.9 80 2.4 NNE 35 46 19 25 1010.7 1010.7 0.0
17/02:30pm 24.3 21.7 20.6 80 2.4 NNE 35 48 19 26 1010.7 1010.7 0.0
17/02:00pm 24.4 21.8 20.7 80 2.4 NNE 35 48 19 26 1010.7 1010.7 0.0
17/01:30pm 25.7 23.3 21.1 76 3.0 NNE 35 48 19 26 1010.6 1010.6 0.0
17/01:00pm 24.5 22.5 20.8 80 2.4 NE 32 41 17 22 1010.7 1010.7 0.0
17/12:30pm 24.4 22.2 20.7 80 2.4 NNE 33 44 18 24 1010.9 1010.9 0.0
17/12:00pm 23.8 21.9 20.9 84 1.9 NE 32 39 17 21 1011.1 1011.1 0.0
17/11:30am 24.5 23.1 21.2 82 2.2 NNE 30 37 16 20 1011.3 1011.3 0.0
17/11:00am 24.3 23.1 21.6 85 1.8 NNE 30 37 16 20 1011.3 1011.3 0.0
17/10:30am 23.5 23.0 20.8 85 1.8 NE 24 32 13 17 1011.4 1011.4 0.0
17/10:00am 24.0 23.8 20.5 81 2.3 NE 22 30 12 16 1011.5 1011.5 0.0
17/09:30am 25.1 25.6 20.1 74 3.2 NNE 17 30 9 16 1011.4 1011.4 0.0
17/09:00am 24.2 24.8 20.3 79 2.5 NNE 17 20 9 11 1011.4 1011.4 113.2
17/08:30am 24.0 23.9 19.5 76 2.9 N 19 28 10 15 1011.4 1011.4 113.2
17/08:00am 23.3 23.2 19.9 81 2.2 NNW 20 26 11 14 1011.3 1011.3 113.2
17/07:30am 22.6 23.9 19.4 82 2.0 NNW 11 20 6 11 1011.5 1011.5 113.2
17/07:00am 22.2 24.1 19.7 86 1.6 NNW 9 13 5 7 1011.2 1011.2 113.2
17/06:30am 21.2 21.9 18.9 87 1.4 NW 13 19 7 10 1010.8 1010.8 113.2
17/06:00am 20.5 21.8 18.4 88 1.3 WNW 9 13 5 7 1010.6 1010.6 113.2
17/05:30am 20.9 20.1 18.5 86 1.5 N 20 30 11 16 1010.3 1010.3 113.2
17/05:00am 20.9 19.8 18.7 87 1.4 N 22 28 12 15 1009.9 1009.9 113.2
17/04:30am 20.8 19.7 18.6 87 1.4 NNW 22 32 12 17 1009.7 1009.7 113.2
17/04:00am 20.9 18.7 18.7 87 1.4 N 28 35 15 19 1009.8 1009.8 113.2
17/03:30am 20.4 17.6 18.2 87 1.4 N 30 39 16 21 1009.9 1009.9 113.2
17/03:00am 20.3 17.2 18.4 89 1.2 N 32 37 17 20 1010.1 1010.1 113.0
17/02:30am 20.1 17.0 18.4 90 1.1 N 32 41 17 22 1010.0 1010.0 112.8
17/02:28am 20.0 16.9 18.3 90 1.1 N 32 41 17 22 1010.0 1010.0 112.8
17/02:06am 19.9 19.1 18.4 91 0.9 N 20 33 11 18 1010.5 1010.5 111.6
17/02:00am 19.8 18.6 18.3 91 0.9 N 22 33 12 18 1010.7 1010.7 111.2
17/01:30am 19.5 17.7 18.7 95 0.5 NNE 26 33 14 18 1011.2 1011.2 109.4
17/01:00am 19.4 19.2 18.4 94 0.6 NNE 17 22 9 12 1012.3 1012.3 107.2
17/12:30am 19.5 19.7 18.5 94 0.6 N 15 19 8 10 1013.1 1013.1 104.6
17/12:00am 19.3 19.6 18.0 92 0.8 N 13 19 7 10 1013.5 1013.5 102.2
 
Date/Time
EDT
Temp
°C
App
Temp
°C
Dew
Point
°C
Rel
Hum
%
Delta-T
°C
Wind Press
QNH
hPa
Press
MSL
hPa
Rain since
9am
mm
Dir  Spd
km/h
Gust
km/h
Spd
kts
Gust
kts
16/11:30pm 20.4 21.3 19.2 93 0.8 NNE 13 20 7 11 1013.7 1013.7 97.6
16/11:00pm 21.3 23.8 20.3 94 0.6 ESE 7 13 4 7 1013.4 1013.4 90.4
16/10:30pm 21.5 24.1 20.5 94 0.6 SE 7 9 4 5 1013.1 1013.1 86.4
16/10:00pm 21.7 23.8 20.9 95 0.5 ENE 11 17 6 9 1013.1 1013.1 84.6
16/09:38pm 21.4 22.6 20.6 95 0.5 NE 15 22 8 12 1012.4 1012.4 82.4
16/09:30pm 21.4 22.9 20.6 95 0.5 NE 13 19 7 10 1012.4 1012.4 81.8
16/09:19pm 21.4 22.9 20.6 95 0.5 NE 13 17 7 9 1012.3 1012.3 80.4
16/09:00pm 21.5 22.2 20.5 94 0.6 NE 17 26 9 14 1012.1 1012.1 78.8
16/08:30pm 21.8 21.4 21.0 95 0.5 ENE 24 30 13 16 1011.4 1011.4 76.4
16/08:00pm 21.9 21.2 21.1 95 0.5 ENE 26 35 14 19 1011.1 1011.1 73.0
16/07:30pm 21.8 19.9 21.0 95 0.5 ENE 32 39 17 21 1010.9 1010.9 70.0
16/07:06pm 21.9 20.8 21.1 95 0.5 ENE 28 46 15 25 1010.9 1010.9 67.4
16/07:00pm 21.9 20.8 21.1 95 0.5 ENE 28 39 15 21 1010.8 1010.8 66.6
16/06:30pm 21.9 21.6 21.1 95 0.5 ENE 24 32 13 17 1010.5 1010.5 63.4
16/06:23pm 21.8 21.4 21.0 95 0.5 E 24 32 13 17 1010.4 1010.4 61.2
16/06:00pm 21.9 20.8 21.1 95 0.5 ENE 28 37 15 20 1010.4 1010.4 53.6
16/05:46pm 21.8 20.3 21.0 95 0.5 ENE 30 39 16 21 1010.3 1010.3 51.6
16/05:30pm 21.9 20.5 21.1 95 0.5 ENE 30 37 16 20 1010.2 1010.2 49.0
16/05:00pm 22.0 21.8 21.2 95 0.5 ENE 24 32 13 17 1010.0 1010.0 41.4

Other Formats:

Comma delimited format used in spreadsheet applications
http://www.bom.gov.au/fwo/IDN60801/IDN60801.95729.axf

JavaScript Object Notation format (JSON) in row-major order
http://www.bom.gov.au/fwo/IDN60801/IDN60801.95729.json